Time,TemperatureF,DewpointF,PressureIn,WindDirection,WindDirectionDegrees,WindSpeedMPH,WindSpeedGustMPH,Humidity,HourlyPrecipIn,Conditions,Clouds,dailyrainin,SoftwareType,DateUTC
2013-03-04 00:01:00,31.0,22.0,-100.00,SW,230,6.0,16.0,67,-99.99,,,-99.99,,2013-03-04 07:01:00,
2013-03-04 00:11:00,31.0,22.0,-100.00,SW,230,6.0,16.0,67,-99.99,,,-99.99,,2013-03-04 07:11:00,
2013-03-04 00:21:00,31.0,21.0,-100.00,SW,225,6.0,13.0,66,-99.99,,,-99.99,,2013-03-04 07:21:00,
2013-03-04 00:32:00,31.0,21.0,-100.00,SW,225,6.0,13.0,66,-99.99,,,-99.99,,2013-03-04 07:32:00,
2013-03-04 00:41:00,31.0,22.0,-100.00,SW,230,4.0,14.0,67,-99.99,,,-99.99,,2013-03-04 07:41:00,
2013-03-04 00:52:00,31.0,22.0,-100.00,SW,230,4.0,14.0,67,-99.99,,,-99.99,,2013-03-04 07:52:00,
2013-03-04 01:02:00,30.0,22.0,-100.00,WSW,250,2.0,7.0,71,-99.99,,,-99.99,,2013-03-04 08:02:00,
2013-03-04 01:11:00,30.0,22.0,-100.00,WSW,250,2.0,7.0,71,-99.99,,,-99.99,,2013-03-04 08:11:00,
2013-03-04 01:21:00,30.0,22.0,-100.00,WSW,250,4.0,9.0,72,-99.99,,,-99.99,,2013-03-04 08:21:00,
2013-03-04 01:32:00,30.0,22.0,-100.00,WSW,250,4.0,9.0,72,-99.99,,,-99.99,,2013-03-04 08:32:00,
2013-03-04 01:42:00,30.0,22.0,-100.00,WSW,240,4.0,12.0,69,-99.99,,,-99.99,,2013-03-04 08:42:00,
2013-03-04 01:52:00,30.0,22.0,-100.00,WSW,240,4.0,12.0,69,-99.99,,,-99.99,,2013-03-04 08:52:00,
2013-03-04 02:01:00,31.0,22.0,-100.00,SW,235,5.0,11.0,69,-99.99,,,-99.99,,2013-03-04 09:01:00,
2013-03-04 02:11:00,31.0,22.0,-100.00,SW,235,5.0,11.0,69,-99.99,,,-99.99,,2013-03-04 09:11:00,
2013-03-04 02:21:00,30.0,23.0,-100.00,WSW,255,1.0,8.0,74,-99.99,,,-99.99,,2013-03-04 09:21:00,
2013-03-04 02:32:00,30.0,23.0,-100.00,WSW,255,1.0,8.0,74,-99.99,,,-99.99,,2013-03-04 09:32:00,
2013-03-04 02:42:00,29.0,23.0,-100.00,West,270,4.0,8.0,77,-99.99,,,-99.99,,2013-03-04 09:42:00,
2013-03-04 02:52:00,29.0,23.0,-100.00,West,270,4.0,8.0,77,-99.99,,,-99.99,,2013-03-04 09:52:00,
2013-03-04 03:01:00,29.0,22.0,-100.00,West,260,7.0,16.0,74,-99.99,,,-99.99,,2013-03-04 10:01:00,
2013-03-04 03:11:00,29.0,22.0,-100.00,West,260,7.0,16.0,74,-99.99,,,-99.99,,2013-03-04 10:11:00,
2013-03-04 03:21:00,29.0,22.0,-100.00,West,260,6.0,17.0,74,-99.99,,,-99.99,,2013-03-04 10:21:00,
2013-03-04 03:32:00,29.0,22.0,-100.00,West,260,6.0,17.0,74,-99.99,,,-99.99,,2013-03-04 10:32:00,
2013-03-04 03:42:00,29.0,22.0,-100.00,WSW,250,7.0,16.0,72,-99.99,,,-99.99,,2013-03-04 10:42:00,
2013-03-04 03:52:00,29.0,22.0,-100.00,WSW,250,7.0,16.0,72,-99.99,,,-99.99,,2013-03-04 10:52:00,
2013-03-04 04:01:00,29.0,22.0,-100.00,West,265,9.0,16.0,75,-99.99,,,-99.99,,2013-03-04 11:01:00,
2013-03-04 04:11:00,29.0,22.0,-100.00,West,265,9.0,16.0,75,-99.99,,,-99.99,,2013-03-04 11:11:00,
2013-03-04 04:21:00,29.0,21.0,-100.00,WSW,250,7.0,16.0,72,-99.99,,,-99.99,,2013-03-04 11:21:00,
2013-03-04 04:32:00,29.0,21.0,-100.00,WSW,250,7.0,16.0,72,-99.99,,,-99.99,,2013-03-04 11:32:00,
2013-03-04 04:42:00,28.0,21.0,-100.00,WSW,255,7.0,16.0,73,-99.99,,,-99.99,,2013-03-04 11:42:00,
2013-03-04 04:52:00,28.0,21.0,-100.00,WSW,255,7.0,16.0,73,-99.99,,,-99.99,,2013-03-04 11:52:00,
2013-03-04 05:01:00,28.0,20.0,-100.00,WSW,250,6.0,17.0,72,-99.99,,,-99.99,,2013-03-04 12:01:00,
2013-03-04 05:11:00,28.0,20.0,-100.00,WSW,250,6.0,17.0,72,-99.99,,,-99.99,,2013-03-04 12:11:00,
2013-03-04 05:22:00,26.0,20.0,-100.00,West,280,4.0,6.0,79,-99.99,,,-99.99,,2013-03-04 12:22:00,
2013-03-04 05:32:00,26.0,20.0,-100.00,West,280,4.0,6.0,79,-99.99,,,-99.99,,2013-03-04 12:32:00,
2013-03-04 05:42:00,24.0,21.0,-100.00,NW,305,3.0,7.0,85,-99.99,,,-99.99,,2013-03-04 12:42:00,
2013-03-04 05:53:00,24.0,21.0,-100.00,NW,305,3.0,7.0,85,-99.99,,,-99.99,,2013-03-04 12:53:00,
2013-03-04 06:02:00,23.0,21.0,-100.00,NW,320,2.0,6.0,89,-99.99,,,-99.99,,2013-03-04 13:02:00,
2013-03-04 06:11:00,23.0,21.0,-100.00,NW,320,2.0,6.0,89,-99.99,,,-99.99,,2013-03-04 13:11:00,
2013-03-04 06:21:00,22.0,20.0,-100.00,NW,325,2.0,4.0,91,-99.99,,,-99.99,,2013-03-04 13:21:00,
2013-03-04 06:32:00,22.0,20.0,-100.00,NW,325,2.0,4.0,91,-99.99,,,-99.99,,2013-03-04 13:32:00,
2013-03-04 06:42:00,22.0,20.0,-100.00,NNW,335,3.0,6.0,93,-99.99,,,-99.99,,2013-03-04 13:42:00,
2013-03-04 06:52:00,22.0,20.0,-100.00,NNW,335,3.0,6.0,93,-99.99,,,-99.99,,2013-03-04 13:52:00,
2013-03-04 07:01:00,22.0,21.0,-100.00,NNW,340,2.0,9.0,94,-99.99,,,-99.99,,2013-03-04 14:01:00,
2013-03-04 07:11:00,22.0,21.0,-100.00,NNW,340,2.0,9.0,94,-99.99,,,-99.99,,2013-03-04 14:11:00,
2013-03-04 07:22:00,22.0,21.0,-100.00,NNW,340,3.0,6.0,95,-99.99,,,-99.99,,2013-03-04 14:22:00,
2013-03-04 07:32:00,22.0,21.0,-100.00,NNW,340,3.0,6.0,95,-99.99,,,-99.99,,2013-03-04 14:32:00,
2013-03-04 07:42:00,22.0,21.0,-100.00,NNW,340,4.0,-999.0,95,-99.99,,,-99.99,,2013-03-04 14:42:00,
2013-03-04 07:52:00,22.0,21.0,-100.00,NNW,340,4.0,-999.0,95,-99.99,,,-99.99,,2013-03-04 14:52:00,
2013-03-04 08:01:00,22.0,21.0,-100.00,NNW,345,2.0,6.0,95,-99.99,,,-99.99,,2013-03-04 15:01:00,
2013-03-04 08:11:00,22.0,21.0,-100.00,NNW,345,2.0,6.0,95,-99.99,,,-99.99,,2013-03-04 15:11:00,
2013-03-04 08:21:00,22.0,21.0,-100.00,NNW,345,2.0,7.0,95,-99.99,,,-99.99,,2013-03-04 15:21:00,
2013-03-04 08:32:00,22.0,21.0,-100.00,NNW,345,2.0,7.0,95,-99.99,,,-99.99,,2013-03-04 15:32:00,
2013-03-04 08:42:00,22.0,22.0,-100.00,NNW,345,3.0,7.0,95,-99.99,,,-99.99,,2013-03-04 15:42:00,
2013-03-04 08:52:00,22.0,22.0,-100.00,NNW,345,3.0,7.0,95,-99.99,,,-99.99,,2013-03-04 15:52:00,
2013-03-04 09:02:00,24.0,22.0,-100.00,NNW,340,4.0,6.0,95,-99.99,,,-99.99,,2013-03-04 16:02:00,
2013-03-04 09:11:00,24.0,22.0,-100.00,NNW,340,4.0,6.0,95,-99.99,,,-99.99,,2013-03-04 16:11:00,
2013-03-04 09:21:00,25.0,24.0,-100.00,NNW,335,3.0,11.0,93,-99.99,,,-99.99,,2013-03-04 16:21:00,
2013-03-04 09:32:00,25.0,24.0,-100.00,NNW,335,3.0,11.0,93,-99.99,,,-99.99,,2013-03-04 16:32:00,
2013-03-04 09:42:00,30.0,20.0,-100.00,SW,230,6.0,10.0,66,-99.99,,,-99.99,,2013-03-04 16:42:00,
2013-03-04 09:52:00,30.0,20.0,-100.00,SW,230,6.0,10.0,66,-99.99,,,-99.99,,2013-03-04 16:52:00,
2013-03-04 10:02:00,31.0,19.0,-100.00,SSW,195,6.0,16.0,58,-99.99,,,-99.99,,2013-03-04 17:02:00,
2013-03-04 10:11:00,31.0,19.0,-100.00,SSW,195,6.0,16.0,58,-99.99,,,-99.99,,2013-03-04 17:11:00,
2013-03-04 10:22:00,31.0,22.0,-100.00,SW,230,3.0,14.0,67,-99.99,,,-99.99,,2013-03-04 17:22:00,
2013-03-04 10:32:00,31.0,22.0,-100.00,SW,230,3.0,14.0,67,-99.99,,,-99.99,,2013-03-04 17:32:00,
2013-03-04 10:42:00,35.0,18.0,-100.00,SSE,155,5.0,17.0,49,-99.99,,,-99.99,,2013-03-04 17:42:00,
2013-03-04 10:52:00,35.0,18.0,-100.00,SSE,155,5.0,17.0,49,-99.99,,,-99.99,,2013-03-04 17:52:00,
2013-03-04 11:01:00,34.0,17.0,-100.00,SSE,160,6.0,13.0,50,-99.99,,,-99.99,,2013-03-04 18:01:00,
2013-03-04 11:11:00,34.0,17.0,-100.00,SSE,160,6.0,13.0,50,-99.99,,,-99.99,,2013-03-04 18:11:00,
2013-03-04 11:21:00,33.0,16.0,-100.00,SSE,160,3.0,14.0,49,-99.99,,,-99.99,,2013-03-04 18:21:00,
2013-03-04 11:32:00,33.0,16.0,-100.00,SSE,160,3.0,14.0,49,-99.99,,,-99.99,,2013-03-04 18:32:00,
2013-03-04 11:42:00,28.0,15.0,-100.00,South,190,6.0,11.0,58,-99.99,,,-99.99,,2013-03-04 18:42:00,
2013-03-04 11:52:00,28.0,15.0,-100.00,South,190,6.0,11.0,58,-99.99,,,-99.99,,2013-03-04 18:52:00,
2013-03-04 12:02:00,21.0,14.0,-100.00,WSW,250,6.0,14.0,72,-99.99,,,-99.99,,2013-03-04 19:02:00,
2013-03-04 12:11:00,21.0,14.0,-100.00,WSW,250,6.0,14.0,72,-99.99,,,-99.99,,2013-03-04 19:11:00,
2013-03-04 12:21:00,19.0,14.0,-100.00,West,275,2.0,7.0,79,-99.99,,,-99.99,,2013-03-04 19:21:00,
2013-03-04 12:32:00,19.0,14.0,-100.00,West,275,2.0,7.0,79,-99.99,,,-99.99,,2013-03-04 19:32:00,
2013-03-04 12:42:00,19.0,15.0,-100.00,WNW,295,2.0,8.0,83,-99.99,,,-99.99,,2013-03-04 19:42:00,
2013-03-04 12:52:00,19.0,15.0,-100.00,WNW,295,2.0,8.0,83,-99.99,,,-99.99,,2013-03-04 19:52:00,
2013-03-04 13:01:00,19.0,15.0,-100.00,WNW,295,2.0,8.0,83,-99.99,,,-99.99,,2013-03-04 20:01:00,
2013-03-04 13:11:00,19.0,15.0,-100.00,WNW,295,2.0,8.0,83,-99.99,,,-99.99,,2013-03-04 20:11:00,
2013-03-04 13:22:00,19.0,15.0,-100.00,WNW,295,4.0,6.0,83,-99.99,,,-99.99,,2013-03-04 20:22:00,
2013-03-04 13:32:00,19.0,15.0,-100.00,WNW,295,4.0,6.0,83,-99.99,,,-99.99,,2013-03-04 20:32:00,
2013-03-04 13:42:00,22.0,16.0,-100.00,West,270,9.0,13.0,76,-99.99,,,-99.99,,2013-03-04 20:42:00,
2013-03-04 13:52:00,22.0,16.0,-100.00,West,270,9.0,13.0,76,-99.99,,,-99.99,,2013-03-04 20:52:00,
2013-03-04 14:02:00,22.0,13.0,-100.00,SW,225,6.0,13.0,66,-99.99,,,-99.99,,2013-03-04 21:02:00,
2013-03-04 14:12:00,22.0,13.0,-100.00,SW,225,6.0,13.0,66,-99.99,,,-99.99,,2013-03-04 21:12:00,
2013-03-04 14:21:00,18.0,12.0,-100.00,West,275,9.0,17.0,79,-99.99,,,-99.99,,2013-03-04 21:21:00,
2013-03-04 14:32:00,18.0,12.0,-100.00,West,275,9.0,17.0,79,-99.99,,,-99.99,,2013-03-04 21:32:00,
2013-03-04 14:42:00,16.0,12.0,-100.00,WNW,295,11.0,14.0,83,-99.99,,,-99.99,,2013-03-04 21:42:00,
2013-03-04 14:53:00,16.0,12.0,-100.00,WNW,295,11.0,14.0,83,-99.99,,,-99.99,,2013-03-04 21:53:00,
2013-03-04 15:02:00,17.0,13.0,-100.00,North,-999,-999.0,-999.0,83,-99.99,,,-99.99,,2013-03-04 22:02:00,
2013-03-04 15:12:00,17.0,13.0,-100.00,North,-999,-999.0,-999.0,83,-99.99,,,-99.99,,2013-03-04 22:12:00,
2013-03-04 15:22:00,17.0,13.0,-100.00,WNW,285,2.0,8.0,81,-99.99,,,-99.99,,2013-03-04 22:22:00,
2013-03-04 15:32:00,17.0,13.0,-100.00,WNW,285,2.0,8.0,81,-99.99,,,-99.99,,2013-03-04 22:32:00,
2013-03-04 15:42:00,18.0,11.0,-100.00,WSW,255,4.0,12.0,73,-99.99,,,-99.99,,2013-03-04 22:42:00,
2013-03-04 15:52:00,18.0,11.0,-100.00,WSW,255,4.0,12.0,73,-99.99,,,-99.99,,2013-03-04 22:52:00,
2013-03-04 16:01:00,19.0,10.0,-100.00,SW,235,6.0,12.0,69,-99.99,,,-99.99,,2013-03-04 23:01:00,
2013-03-04 16:11:00,19.0,10.0,-100.00,SW,235,6.0,12.0,69,-99.99,,,-99.99,,2013-03-04 23:11:00,
2013-03-04 16:22:00,17.0,11.0,-100.00,West,260,6.0,13.0,75,-99.99,,,-99.99,,2013-03-04 23:22:00,
2013-03-04 16:32:00,17.0,11.0,-100.00,West,260,6.0,13.0,75,-99.99,,,-99.99,,2013-03-04 23:32:00,
2013-03-04 16:42:00,15.0,11.0,-100.00,WNW,300,8.0,14.0,84,-99.99,,,-99.99,,2013-03-04 23:42:00,
2013-03-04 16:52:00,15.0,11.0,-100.00,WNW,300,8.0,14.0,84,-99.99,,,-99.99,,2013-03-04 23:52:00,
2013-03-04 17:02:00,14.0,11.0,-100.00,NW,310,6.0,19.0,87,-99.99,,,-99.99,,2013-03-05 00:02:00,
2013-03-04 17:11:00,14.0,11.0,-100.00,NW,310,6.0,19.0,87,-99.99,,,-99.99,,2013-03-05 00:11:00,
2013-03-04 17:21:00,13.0,7.0,-100.00,North,-999,-999.0,-999.0,76,-99.99,,,-99.99,,2013-03-05 00:21:00,
2013-03-04 17:32:00,13.0,7.0,-100.00,North,-999,-999.0,-999.0,76,-99.99,,,-99.99,,2013-03-05 00:32:00,
2013-03-04 17:42:00,12.0,6.0,-100.00,West,260,12.0,27.0,74,-99.99,,,-99.99,,2013-03-05 00:42:00,
2013-03-04 17:52:00,12.0,6.0,-100.00,West,260,12.0,27.0,74,-99.99,,,-99.99,,2013-03-05 00:52:00,
2013-03-04 18:01:00,12.0,6.0,-100.00,West,270,9.0,-999.0,78,-99.99,,,-99.99,,2013-03-05 01:01:00,
2013-03-04 18:12:00,12.0,6.0,-100.00,West,270,9.0,-999.0,78,-99.99,,,-99.99,,2013-03-05 01:12:00,
2013-03-04 18:21:00,10.0,7.0,-100.00,North,-999,-999.0,-999.0,85,-99.99,,,-99.99,,2013-03-05 01:21:00,
2013-03-04 18:32:00,10.0,7.0,-100.00,North,-999,-999.0,-999.0,85,-99.99,,,-99.99,,2013-03-05 01:32:00,
2013-03-04 18:41:00,11.0,5.0,-100.00,West,275,11.0,24.0,78,-99.99,,,-99.99,,2013-03-05 01:41:00,
2013-03-04 18:52:00,11.0,5.0,-100.00,West,275,11.0,24.0,78,-99.99,,,-99.99,,2013-03-05 01:52:00,
2013-03-04 19:01:00,11.0,5.0,-100.00,West,275,11.0,24.0,78,-99.99,,,-99.99,,2013-03-05 02:01:00,
2013-03-04 19:11:00,11.0,5.0,-100.00,West,275,11.0,24.0,78,-99.99,,,-99.99,,2013-03-05 02:11:00,
2013-03-04 19:21:00,11.0,5.0,-100.00,West,275,11.0,24.0,78,-99.99,,,-99.99,,2013-03-05 02:21:00,
2013-03-04 19:42:00,11.0,3.0,-100.00,WSW,240,12.0,-999.0,70,-99.99,,,-99.99,,2013-03-05 02:42:00,
2013-03-04 19:52:00,11.0,3.0,-100.00,WSW,240,12.0,-999.0,70,-99.99,,,-99.99,,2013-03-05 02:52:00,
2013-03-04 20:02:00,11.0,3.0,-100.00,WSW,240,12.0,-999.0,70,-99.99,,,-99.99,,2013-03-05 03:02:00,
2013-03-04 20:12:00,11.0,3.0,-100.00,WSW,240,12.0,-999.0,70,-99.99,,,-99.99,,2013-03-05 03:12:00,
2013-03-04 20:22:00,11.0,3.0,-100.00,WSW,240,12.0,-999.0,70,-99.99,,,-99.99,,2013-03-05 03:22:00,
2013-03-04 20:42:00,11.0,2.0,-100.00,SW,220,13.0,32.0,64,-99.99,,,-99.99,,2013-03-05 03:42:00,
2013-03-04 20:52:00,11.0,2.0,-100.00,SW,220,13.0,32.0,64,-99.99,,,-99.99,,2013-03-05 03:52:00,
2013-03-04 21:02:00,11.0,1.0,-100.00,SW,215,8.0,25.0,63,-99.99,,,-99.99,,2013-03-05 04:02:00,
2013-03-04 21:11:00,11.0,1.0,-100.00,SW,215,8.0,25.0,63,-99.99,,,-99.99,,2013-03-05 04:11:00,
2013-03-04 21:22:00,11.0,1.0,-100.00,SW,215,15.0,-999.0,63,-99.99,,,-99.99,,2013-03-05 04:22:00,
2013-03-04 21:32:00,11.0,1.0,-100.00,SW,215,15.0,-999.0,63,-99.99,,,-99.99,,2013-03-05 04:32:00,
2013-03-04 21:42:00,11.0,1.0,-100.00,SW,215,11.0,22.0,63,-99.99,,,-99.99,,2013-03-05 04:42:00,
2013-03-04 21:52:00,11.0,1.0,-100.00,SW,215,11.0,22.0,63,-99.99,,,-99.99,,2013-03-05 04:52:00,
2013-03-04 22:02:00,10.0,1.0,-100.00,SW,215,5.0,-999.0,63,-99.99,,,-99.99,,2013-03-05 05:02:00,
2013-03-04 22:12:00,10.0,1.0,-100.00,SW,215,5.0,-999.0,63,-99.99,,,-99.99,,2013-03-05 05:12:00,
2013-03-04 22:22:00,10.0,0.0,-100.00,SW,220,6.0,11.0,64,-99.99,,,-99.99,,2013-03-05 05:22:00,
2013-03-04 22:32:00,10.0,0.0,-100.00,SW,220,6.0,11.0,64,-99.99,,,-99.99,,2013-03-05 05:32:00,
2013-03-04 22:42:00,10.0,0.0,-100.00,SW,220,4.0,7.0,64,-99.99,,,-99.99,,2013-03-05 05:42:00,
2013-03-04 22:52:00,10.0,0.0,-100.00,SW,220,4.0,7.0,64,-99.99,,,-99.99,,2013-03-05 05:52:00,
2013-03-04 23:01:00,10.0,0.0,-100.00,SW,220,3.0,8.0,65,-99.99,,,-99.99,,2013-03-05 06:01:00,
2013-03-04 23:11:00,10.0,0.0,-100.00,SW,220,3.0,8.0,65,-99.99,,,-99.99,,2013-03-05 06:11:00,
2013-03-04 23:22:00,10.0,1.0,-100.00,SW,220,4.0,16.0,65,-99.99,,,-99.99,,2013-03-05 06:22:00,
2013-03-04 23:32:00,10.0,1.0,-100.00,SW,220,4.0,16.0,65,-99.99,,,-99.99,,2013-03-05 06:32:00,
2013-03-04 23:42:00,11.0,1.0,-100.00,SW,215,6.0,21.0,64,-99.99,,,-99.99,,2013-03-05 06:42:00,
2013-03-04 23:52:00,11.0,1.0,-100.00,SW,215,6.0,21.0,64,-99.99,,,-99.99,,2013-03-05 06:52:00,